sensor_id;sensor_type;location;lat;lon;timestamp;P1;durP1;ratioP1;P2;durP2;ratioP2
2610;SDS011;5612;51.134;17.058;2023-12-29T00:01:24;14.93;;;13.33;;
2610;SDS011;5612;51.134;17.058;2023-12-29T00:04:00;17.03;;;14.00;;
2610;SDS011;5612;51.134;17.058;2023-12-29T00:06:30;18.07;;;12.50;;
2610;SDS011;5612;51.134;17.058;2023-12-29T00:09:02;13.67;;;12.27;;
2610;SDS011;5612;51.134;17.058;2023-12-29T00:11:33;13.57;;;11.53;;
2610;SDS011;5612;51.134;17.058;2023-12-29T00:14:03;15.10;;;11.70;;
2610;SDS011;5612;51.134;17.058;2023-12-29T00:16:33;11.83;;;10.73;;
2610;SDS011;5612;51.134;17.058;2023-12-29T00:19:02;14.07;;;11.73;;
2610;SDS011;5612;51.134;17.058;2023-12-29T00:21:32;13.60;;;11.83;;
2610;SDS011;5612;51.134;17.058;2023-12-29T00:24:02;12.17;;;10.97;;
2610;SDS011;5612;51.134;17.058;2023-12-29T00:26:33;15.30;;;11.10;;
2610;SDS011;5612;51.134;17.058;2023-12-29T00:29:03;13.10;;;11.83;;
2610;SDS011;5612;51.134;17.058;2023-12-29T00:31:34;13.37;;;11.87;;
2610;SDS011;5612;51.134;17.058;2023-12-29T00:34:04;15.17;;;11.83;;
2610;SDS011;5612;51.134;17.058;2023-12-29T00:36:34;13.87;;;11.33;;
2610;SDS011;5612;51.134;17.058;2023-12-29T00:39:03;12.67;;;11.47;;
2610;SDS011;5612;51.134;17.058;2023-12-29T00:41:35;12.77;;;11.57;;
2610;SDS011;5612;51.134;17.058;2023-12-29T00:44:06;12.93;;;11.73;;
2610;SDS011;5612;51.134;17.058;2023-12-29T00:46:36;12.73;;;11.47;;
2610;SDS011;5612;51.134;17.058;2023-12-29T00:49:05;11.47;;;10.30;;
2610;SDS011;5612;51.134;17.058;2023-12-29T00:51:38;12.43;;;10.97;;
2610;SDS011;5612;51.134;17.058;2023-12-29T00:54:09;13.70;;;11.57;;
2610;SDS011;5612;51.134;17.058;2023-12-29T00:56:41;11.90;;;10.80;;
2610;SDS011;5612;51.134;17.058;2023-12-29T00:59:10;15.80;;;11.90;;
2610;SDS011;5612;51.134;17.058;2023-12-29T01:01:40;13.13;;;11.90;;
2610;SDS011;5612;51.134;17.058;2023-12-29T01:04:12;11.40;;;10.20;;
2610;SDS011;5612;51.134;17.058;2023-12-29T01:06:42;11.93;;;10.40;;
2610;SDS011;5612;51.134;17.058;2023-12-29T01:09:11;12.17;;;10.90;;
2610;SDS011;5612;51.134;17.058;2023-12-29T01:11:43;10.27;;;9.20;;
2610;SDS011;5612;51.134;17.058;2023-12-29T01:14:12;10.50;;;9.53;;
2610;SDS011;5612;51.134;17.058;2023-12-29T01:16:42;14.07;;;11.50;;
2610;SDS011;5612;51.134;17.058;2023-12-29T01:19:11;11.40;;;10.30;;
2610;SDS011;5612;51.134;17.058;2023-12-29T01:21:41;11.37;;;10.27;;
2610;SDS011;5612;51.134;17.058;2023-12-29T01:24:11;12.70;;;11.40;;
2610;SDS011;5612;51.134;17.058;2023-12-29T01:26:44;11.90;;;10.80;;
2610;SDS011;5612;51.134;17.058;2023-12-29T01:29:13;12.10;;;10.90;;
2610;SDS011;5612;51.134;17.058;2023-12-29T01:31:43;10.67;;;9.63;;
2610;SDS011;5612;51.134;17.058;2023-12-29T01:34:13;11.83;;;10.73;;
2610;SDS011;5612;51.134;17.058;2023-12-29T01:36:42;12.73;;;10.43;;
2610;SDS011;5612;51.134;17.058;2023-12-29T01:39:12;11.97;;;10.77;;
2610;SDS011;5612;51.134;17.058;2023-12-29T01:41:46;11.07;;;10.07;;
2610;SDS011;5612;51.134;17.058;2023-12-29T01:44:20;10.73;;;9.50;;
2610;SDS011;5612;51.134;17.058;2023-12-29T01:46:51;10.90;;;9.70;;
2610;SDS011;5612;51.134;17.058;2023-12-29T01:49:22;10.23;;;9.23;;
2610;SDS011;5612;51.134;17.058;2023-12-29T01:51:53;11.17;;;10.07;;
2610;SDS011;5612;51.134;17.058;2023-12-29T01:54:25;11.40;;;9.93;;
2610;SDS011;5612;51.134;17.058;2023-12-29T01:56:59;10.53;;;9.53;;
2610;SDS011;5612;51.134;17.058;2023-12-29T01:59:31;11.17;;;9.10;;
2610;SDS011;5612;51.134;17.058;2023-12-29T02:02:01;10.57;;;9.60;;
2610;SDS011;5612;51.134;17.058;2023-12-29T02:04:30;11.00;;;9.80;;
2610;SDS011;5612;51.134;17.058;2023-12-29T02:07:01;10.07;;;9.00;;
2610;SDS011;5612;51.134;17.058;2023-12-29T02:09:30;9.33;;;8.47;;
2610;SDS011;5612;51.134;17.058;2023-12-29T02:12:05;10.67;;;8.00;;
2610;SDS011;5612;51.134;17.058;2023-12-29T02:14:35;10.10;;;8.13;;
2610;SDS011;5612;51.134;17.058;2023-12-29T02:17:07;8.83;;;8.07;;
2610;SDS011;5612;51.134;17.058;2023-12-29T02:19:45;8.40;;;7.70;;
2610;SDS011;5612;51.134;17.058;2023-12-29T02:22:17;8.53;;;7.67;;
2610;SDS011;5612;51.134;17.058;2023-12-29T02:24:49;7.80;;;7.10;;
2610;SDS011;5612;51.134;17.058;2023-12-29T02:27:23;6.73;;;6.07;;
2610;SDS011;5612;51.134;17.058;2023-12-29T02:30:04;7.90;;;7.23;;
2610;SDS011;5612;51.134;17.058;2023-12-29T02:32:38;7.17;;;6.50;;
2610;SDS011;5612;51.134;17.058;2023-12-29T02:35:12;6.87;;;6.27;;
2610;SDS011;5612;51.134;17.058;2023-12-29T02:37:44;7.43;;;6.73;;
2610;SDS011;5612;51.134;17.058;2023-12-29T02:40:16;8.30;;;6.90;;
2610;SDS011;5612;51.134;17.058;2023-12-29T02:42:47;8.13;;;7.43;;
2610;SDS011;5612;51.134;17.058;2023-12-29T02:45:17;6.57;;;6.03;;
2610;SDS011;5612;51.134;17.058;2023-12-29T02:47:47;8.13;;;7.43;;
2610;SDS011;5612;51.134;17.058;2023-12-29T02:50:17;8.03;;;7.40;;
2610;SDS011;5612;51.134;17.058;2023-12-29T02:52:47;7.40;;;6.80;;
2610;SDS011;5612;51.134;17.058;2023-12-29T02:55:18;9.53;;;8.07;;
2610;SDS011;5612;51.134;17.058;2023-12-29T02:57:48;8.87;;;7.97;;
2610;SDS011;5612;51.134;17.058;2023-12-29T03:00:18;7.80;;;7.10;;
2610;SDS011;5612;51.134;17.058;2023-12-29T03:02:47;8.40;;;7.70;;
2610;SDS011;5612;51.134;17.058;2023-12-29T03:05:17;8.53;;;7.73;;
2610;SDS011;5612;51.134;17.058;2023-12-29T03:07:47;8.60;;;7.80;;
2610;SDS011;5612;51.134;17.058;2023-12-29T03:10:18;7.37;;;6.77;;
2610;SDS011;5612;51.134;17.058;2023-12-29T03:12:47;9.17;;;8.30;;
2610;SDS011;5612;51.134;17.058;2023-12-29T03:15:17;7.93;;;7.07;;
2610;SDS011;5612;51.134;17.058;2023-12-29T03:17:47;8.97;;;8.10;;
2610;SDS011;5612;51.134;17.058;2023-12-29T03:20:16;8.43;;;7.63;;
2610;SDS011;5612;51.134;17.058;2023-12-29T03:22:45;7.70;;;7.00;;
2610;SDS011;5612;51.134;17.058;2023-12-29T03:25:15;7.87;;;7.27;;
2610;SDS011;5612;51.134;17.058;2023-12-29T03:27:45;6.80;;;6.10;;
2610;SDS011;5612;51.134;17.058;2023-12-29T03:30:14;7.77;;;7.00;;
2610;SDS011;5612;51.134;17.058;2023-12-29T03:32:43;6.80;;;6.20;;
2610;SDS011;5612;51.134;17.058;2023-12-29T03:35:12;6.47;;;5.90;;
2610;SDS011;5612;51.134;17.058;2023-12-29T03:37:41;6.90;;;6.30;;
2610;SDS011;5612;51.134;17.058;2023-12-29T03:40:10;6.37;;;5.87;;
2610;SDS011;5612;51.134;17.058;2023-12-29T03:42:41;7.50;;;6.80;;
2610;SDS011;5612;51.134;17.058;2023-12-29T03:45:10;5.80;;;5.40;;
2610;SDS011;5612;51.134;17.058;2023-12-29T03:47:38;6.73;;;6.13;;
2610;SDS011;5612;51.134;17.058;2023-12-29T03:50:08;7.33;;;6.73;;
2610;SDS011;5612;51.134;17.058;2023-12-29T03:52:36;7.00;;;6.30;;
2610;SDS011;5612;51.134;17.058;2023-12-29T03:55:05;6.67;;;5.97;;
2610;SDS011;5612;51.134;17.058;2023-12-29T03:57:35;5.90;;;5.33;;
2610;SDS011;5612;51.134;17.058;2023-12-29T04:00:06;7.77;;;7.10;;
2610;SDS011;5612;51.134;17.058;2023-12-29T04:02:35;7.90;;;7.13;;
2610;SDS011;5612;51.134;17.058;2023-12-29T04:05:05;6.80;;;6.30;;
2610;SDS011;5612;51.134;17.058;2023-12-29T04:07:35;8.23;;;7.00;;
2610;SDS011;5612;51.134;17.058;2023-12-29T04:10:04;7.03;;;6.13;;
2610;SDS011;5612;51.134;17.058;2023-12-29T04:12:34;7.27;;;6.57;;
2610;SDS011;5612;51.134;17.058;2023-12-29T04:15:03;7.23;;;6.63;;
2610;SDS011;5612;51.134;17.058;2023-12-29T04:17:34;6.73;;;6.00;;
2610;SDS011;5612;51.134;17.058;2023-12-29T04:20:03;7.47;;;6.80;;
2610;SDS011;5612;51.134;17.058;2023-12-29T04:22:33;8.43;;;6.33;;
2610;SDS011;5612;51.134;17.058;2023-12-29T04:25:02;7.30;;;6.60;;
2610;SDS011;5612;51.134;17.058;2023-12-29T04:27:31;6.87;;;6.23;;
2610;SDS011;5612;51.134;17.058;2023-12-29T04:30:00;7.83;;;7.17;;
2610;SDS011;5612;51.134;17.058;2023-12-29T04:32:31;7.20;;;6.60;;
2610;SDS011;5612;51.134;17.058;2023-12-29T04:35:00;6.23;;;5.83;;
2610;SDS011;5612;51.134;17.058;2023-12-29T04:37:28;5.53;;;5.13;;
2610;SDS011;5612;51.134;17.058;2023-12-29T04:39:57;6.73;;;5.03;;
2610;SDS011;5612;51.134;17.058;2023-12-29T04:42:26;5.07;;;4.73;;
2610;SDS011;5612;51.134;17.058;2023-12-29T04:44:54;6.80;;;6.20;;
2610;SDS011;5612;51.134;17.058;2023-12-29T04:47:23;6.00;;;5.50;;
2610;SDS011;5612;51.134;17.058;2023-12-29T04:49:53;6.10;;;5.07;;
2610;SDS011;5612;51.134;17.058;2023-12-29T04:52:22;5.40;;;5.00;;
2610;SDS011;5612;51.134;17.058;2023-12-29T04:54:51;5.73;;;5.27;;
2610;SDS011;5612;51.134;17.058;2023-12-29T04:57:20;6.07;;;5.53;;
2610;SDS011;5612;51.134;17.058;2023-12-29T04:59:49;5.70;;;5.13;;
2610;SDS011;5612;51.134;17.058;2023-12-29T05:02:17;5.93;;;5.43;;
2610;SDS011;5612;51.134;17.058;2023-12-29T05:04:48;7.07;;;6.47;;
2610;SDS011;5612;51.134;17.058;2023-12-29T05:07:18;5.70;;;5.20;;
2610;SDS011;5612;51.134;17.058;2023-12-29T05:09:47;6.30;;;5.80;;
2610;SDS011;5612;51.134;17.058;2023-12-29T05:12:16;5.83;;;5.40;;
2610;SDS011;5612;51.134;17.058;2023-12-29T05:14:44;6.77;;;6.07;;
2610;SDS011;5612;51.134;17.058;2023-12-29T05:17:13;6.50;;;5.90;;
2610;SDS011;5612;51.134;17.058;2023-12-29T05:19:42;6.03;;;5.53;;
2610;SDS011;5612;51.134;17.058;2023-12-29T05:22:10;6.67;;;5.97;;
2610;SDS011;5612;51.134;17.058;2023-12-29T05:24:43;9.40;;;6.40;;
2610;SDS011;5612;51.134;17.058;2023-12-29T05:27:12;7.57;;;6.77;;
2610;SDS011;5612;51.134;17.058;2023-12-29T05:29:41;6.20;;;5.70;;
2610;SDS011;5612;51.134;17.058;2023-12-29T05:32:10;6.43;;;5.80;;
2610;SDS011;5612;51.134;17.058;2023-12-29T05:34:38;6.47;;;5.87;;
2610;SDS011;5612;51.134;17.058;2023-12-29T05:37:07;6.00;;;5.50;;
2610;SDS011;5612;51.134;17.058;2023-12-29T05:39:36;5.70;;;5.30;;
2610;SDS011;5612;51.134;17.058;2023-12-29T05:42:06;5.80;;;5.40;;
2610;SDS011;5612;51.134;17.058;2023-12-29T05:44:35;6.50;;;5.90;;
2610;SDS011;5612;51.134;17.058;2023-12-29T05:47:04;5.83;;;5.33;;
2610;SDS011;5612;51.134;17.058;2023-12-29T05:49:33;6.50;;;5.90;;
2610;SDS011;5612;51.134;17.058;2023-12-29T05:52:06;6.07;;;5.67;;
2610;SDS011;5612;51.134;17.058;2023-12-29T05:54:35;7.53;;;6.07;;
2610;SDS011;5612;51.134;17.058;2023-12-29T05:57:04;6.30;;;5.80;;
2610;SDS011;5612;51.134;17.058;2023-12-29T05:59:34;6.03;;;5.53;;
2610;SDS011;5612;51.134;17.058;2023-12-29T06:02:02;6.30;;;5.70;;
2610;SDS011;5612;51.134;17.058;2023-12-29T06:04:31;7.57;;;6.83;;
2610;SDS011;5612;51.134;17.058;2023-12-29T06:07:00;6.97;;;6.37;;
2610;SDS011;5612;51.134;17.058;2023-12-29T06:09:29;6.17;;;5.57;;
2610;SDS011;5612;51.134;17.058;2023-12-29T06:11:57;5.90;;;5.40;;
2610;SDS011;5612;51.134;17.058;2023-12-29T06:14:28;9.23;;;6.40;;
2610;SDS011;5612;51.134;17.058;2023-12-29T06:16:56;6.73;;;6.13;;
2610;SDS011;5612;51.134;17.058;2023-12-29T06:19:25;7.07;;;6.43;;
2610;SDS011;5612;51.134;17.058;2023-12-29T06:21:55;7.00;;;6.40;;
2610;SDS011;5612;51.134;17.058;2023-12-29T06:24:24;6.33;;;5.57;;
2610;SDS011;5612;51.134;17.058;2023-12-29T06:26:52;5.73;;;5.17;;
2610;SDS011;5612;51.134;17.058;2023-12-29T06:29:21;5.93;;;5.43;;
2610;SDS011;5612;51.134;17.058;2023-12-29T06:31:51;6.00;;;5.40;;
2610;SDS011;5612;51.134;17.058;2023-12-29T06:34:20;6.20;;;5.27;;
2610;SDS011;5612;51.134;17.058;2023-12-29T06:36:49;5.83;;;5.43;;
2610;SDS011;5612;51.134;17.058;2023-12-29T06:39:19;7.50;;;6.57;;
2610;SDS011;5612;51.134;17.058;2023-12-29T06:41:48;6.70;;;6.10;;
2610;SDS011;5612;51.134;17.058;2023-12-29T06:44:16;6.10;;;5.60;;
2610;SDS011;5612;51.134;17.058;2023-12-29T06:46:45;6.10;;;5.70;;
2610;SDS011;5612;51.134;17.058;2023-12-29T06:49:15;6.80;;;6.17;;
2610;SDS011;5612;51.134;17.058;2023-12-29T06:51:44;5.07;;;4.63;;
2610;SDS011;5612;51.134;17.058;2023-12-29T06:54:13;5.53;;;5.07;;
2610;SDS011;5612;51.134;17.058;2023-12-29T06:56:41;5.57;;;5.07;;
2610;SDS011;5612;51.134;17.058;2023-12-29T06:59:10;4.97;;;4.47;;
2610;SDS011;5612;51.134;17.058;2023-12-29T07:01:39;4.40;;;4.10;;
2610;SDS011;5612;51.134;17.058;2023-12-29T07:04:08;4.97;;;4.57;;
2610;SDS011;5612;51.134;17.058;2023-12-29T07:06:39;4.03;;;3.70;;
2610;SDS011;5612;51.134;17.058;2023-12-29T07:09:08;4.77;;;4.37;;
2610;SDS011;5612;51.134;17.058;2023-12-29T07:11:37;4.67;;;4.27;;
2610;SDS011;5612;51.134;17.058;2023-12-29T07:14:06;5.87;;;5.00;;
2610;SDS011;5612;51.134;17.058;2023-12-29T07:16:34;4.97;;;4.20;;
2610;SDS011;5612;51.134;17.058;2023-12-29T07:19:03;4.97;;;4.47;;
2610;SDS011;5612;51.134;17.058;2023-12-29T07:21:32;4.50;;;4.20;;
2610;SDS011;5612;51.134;17.058;2023-12-29T07:24:03;5.07;;;4.57;;
2610;SDS011;5612;51.134;17.058;2023-12-29T07:26:32;5.20;;;4.70;;
2610;SDS011;5612;51.134;17.058;2023-12-29T07:29:04;4.83;;;4.37;;
2610;SDS011;5612;51.134;17.058;2023-12-29T07:31:33;5.67;;;5.00;;
2610;SDS011;5612;51.134;17.058;2023-12-29T07:34:01;4.53;;;4.10;;
2610;SDS011;5612;51.134;17.058;2023-12-29T07:36:30;5.03;;;4.57;;
2610;SDS011;5612;51.134;17.058;2023-12-29T07:38:59;6.40;;;4.77;;
2610;SDS011;5612;51.134;17.058;2023-12-29T07:41:29;4.90;;;4.50;;
2610;SDS011;5612;51.134;17.058;2023-12-29T07:43:57;4.90;;;4.50;;
2610;SDS011;5612;51.134;17.058;2023-12-29T07:46:26;5.03;;;4.53;;
2610;SDS011;5612;51.134;17.058;2023-12-29T07:48:55;4.90;;;4.50;;
2610;SDS011;5612;51.134;17.058;2023-12-29T07:51:24;5.10;;;4.67;;
2610;SDS011;5612;51.134;17.058;2023-12-29T07:53:52;8.70;;;4.80;;
2610;SDS011;5612;51.134;17.058;2023-12-29T07:56:21;4.67;;;4.27;;
2610;SDS011;5612;51.134;17.058;2023-12-29T07:58:51;4.80;;;4.40;;
2610;SDS011;5612;51.134;17.058;2023-12-29T08:01:20;4.83;;;4.43;;
2610;SDS011;5612;51.134;17.058;2023-12-29T08:03:49;5.53;;;4.40;;
2610;SDS011;5612;51.134;17.058;2023-12-29T08:06:17;4.70;;;4.10;;
2610;SDS011;5612;51.134;17.058;2023-12-29T08:08:46;5.07;;;4.40;;
2610;SDS011;5612;51.134;17.058;2023-12-29T08:11:15;5.53;;;5.13;;
2610;SDS011;5612;51.134;17.058;2023-12-29T08:13:46;5.47;;;4.27;;
2610;SDS011;5612;51.134;17.058;2023-12-29T08:16:17;4.73;;;4.43;;
2610;SDS011;5612;51.134;17.058;2023-12-29T08:18:46;4.47;;;3.87;;
2610;SDS011;5612;51.134;17.058;2023-12-29T08:21:16;6.23;;;4.37;;
2610;SDS011;5612;51.134;17.058;2023-12-29T08:23:46;4.23;;;3.90;;
2610;SDS011;5612;51.134;17.058;2023-12-29T08:26:15;5.23;;;4.30;;
2610;SDS011;5612;51.134;17.058;2023-12-29T08:28:44;4.47;;;4.07;;
2610;SDS011;5612;51.134;17.058;2023-12-29T08:31:13;4.43;;;4.00;;
2610;SDS011;5612;51.134;17.058;2023-12-29T08:33:43;4.13;;;3.83;;
2610;SDS011;5612;51.134;17.058;2023-12-29T08:36:12;3.80;;;3.47;;
2610;SDS011;5612;51.134;17.058;2023-12-29T08:38:40;5.73;;;3.93;;
2610;SDS011;5612;51.134;17.058;2023-12-29T08:41:09;3.83;;;3.50;;
2610;SDS011;5612;51.134;17.058;2023-12-29T08:43:42;4.77;;;4.10;;
2610;SDS011;5612;51.134;17.058;2023-12-29T08:46:11;6.37;;;3.73;;
2610;SDS011;5612;51.134;17.058;2023-12-29T08:48:40;3.97;;;3.73;;
2610;SDS011;5612;51.134;17.058;2023-12-29T08:51:10;3.80;;;3.50;;
2610;SDS011;5612;51.134;17.058;2023-12-29T08:53:39;4.53;;;3.57;;
2610;SDS011;5612;51.134;17.058;2023-12-29T08:56:08;5.00;;;3.87;;
2610;SDS011;5612;51.134;17.058;2023-12-29T08:58:36;4.30;;;3.90;;
2610;SDS011;5612;51.134;17.058;2023-12-29T09:01:05;6.60;;;4.20;;
2610;SDS011;5612;51.134;17.058;2023-12-29T09:03:34;8.00;;;4.30;;
2610;SDS011;5612;51.134;17.058;2023-12-29T09:06:03;4.50;;;4.07;;
2610;SDS011;5612;51.134;17.058;2023-12-29T09:08:33;5.93;;;4.83;;
2610;SDS011;5612;51.134;17.058;2023-12-29T09:11:02;3.90;;;3.60;;
2610;SDS011;5612;51.134;17.058;2023-12-29T09:13:31;3.70;;;3.40;;
2610;SDS011;5612;51.134;17.058;2023-12-29T09:16:00;3.33;;;3.13;;
2610;SDS011;5612;51.134;17.058;2023-12-29T09:18:28;3.30;;;3.10;;
2610;SDS011;5612;51.134;17.058;2023-12-29T09:21:00;6.60;;;3.43;;
2610;SDS011;5612;51.134;17.058;2023-12-29T09:23:29;3.07;;;2.87;;
2610;SDS011;5612;51.134;17.058;2023-12-29T09:26:00;4.47;;;3.40;;
2610;SDS011;5612;51.134;17.058;2023-12-29T09:28:29;3.80;;;3.50;;
2610;SDS011;5612;51.134;17.058;2023-12-29T09:30:58;3.30;;;3.00;;
2610;SDS011;5612;51.134;17.058;2023-12-29T09:33:28;3.60;;;3.30;;
2610;SDS011;5612;51.134;17.058;2023-12-29T09:35:56;2.83;;;2.63;;
2610;SDS011;5612;51.134;17.058;2023-12-29T09:38:25;3.10;;;2.87;;
2610;SDS011;5612;51.134;17.058;2023-12-29T09:40:54;3.50;;;3.20;;
2610;SDS011;5612;51.134;17.058;2023-12-29T09:43:28;3.20;;;3.00;;
2610;SDS011;5612;51.134;17.058;2023-12-29T09:45:59;2.93;;;2.73;;
2610;SDS011;5612;51.134;17.058;2023-12-29T09:48:30;3.33;;;3.13;;
2610;SDS011;5612;51.134;17.058;2023-12-29T09:51:02;3.27;;;2.73;;
2610;SDS011;5612;51.134;17.058;2023-12-29T09:53:34;3.13;;;2.93;;
2610;SDS011;5612;51.134;17.058;2023-12-29T09:56:04;3.80;;;3.50;;
2610;SDS011;5612;51.134;17.058;2023-12-29T09:58:37;3.40;;;3.20;;
2610;SDS011;5612;51.134;17.058;2023-12-29T10:01:06;2.73;;;2.57;;
2610;SDS011;5612;51.134;17.058;2023-12-29T10:03:35;3.73;;;3.43;;
2610;SDS011;5612;51.134;17.058;2023-12-29T10:06:06;2.80;;;2.60;;
2610;SDS011;5612;51.134;17.058;2023-12-29T10:08:36;2.90;;;2.70;;
2610;SDS011;5612;51.134;17.058;2023-12-29T10:11:11;4.70;;;3.50;;
2610;SDS011;5612;51.134;17.058;2023-12-29T10:13:43;4.57;;;3.30;;
2610;SDS011;5612;51.134;17.058;2023-12-29T10:16:14;2.83;;;2.63;;
2610;SDS011;5612;51.134;17.058;2023-12-29T10:18:49;3.10;;;2.80;;
2610;SDS011;5612;51.134;17.058;2023-12-29T10:21:26;3.27;;;2.97;;
2610;SDS011;5612;51.134;17.058;2023-12-29T10:23:58;3.33;;;3.07;;
2610;SDS011;5612;51.134;17.058;2023-12-29T10:26:37;3.10;;;2.90;;
2610;SDS011;5612;51.134;17.058;2023-12-29T10:29:09;2.80;;;2.60;;
2610;SDS011;5612;51.134;17.058;2023-12-29T10:31:38;3.10;;;2.90;;
2610;SDS011;5612;51.134;17.058;2023-12-29T10:34:19;3.07;;;2.77;;
2610;SDS011;5612;51.134;17.058;2023-12-29T10:36:56;2.90;;;2.70;;
2610;SDS011;5612;51.134;17.058;2023-12-29T10:39:25;3.03;;;2.73;;
2610;SDS011;5612;51.134;17.058;2023-12-29T10:42:02;3.40;;;2.97;;
2610;SDS011;5612;51.134;17.058;2023-12-29T10:44:34;2.83;;;2.63;;
2610;SDS011;5612;51.134;17.058;2023-12-29T10:47:09;3.10;;;2.90;;
2610;SDS011;5612;51.134;17.058;2023-12-29T10:49:39;3.30;;;3.00;;
2610;SDS011;5612;51.134;17.058;2023-12-29T10:52:11;2.90;;;2.70;;
2610;SDS011;5612;51.134;17.058;2023-12-29T10:54:41;2.93;;;2.70;;
2610;SDS011;5612;51.134;17.058;2023-12-29T10:57:11;3.40;;;3.20;;
2610;SDS011;5612;51.134;17.058;2023-12-29T10:59:42;2.87;;;2.70;;
2610;SDS011;5612;51.134;17.058;2023-12-29T11:02:11;3.17;;;2.87;;
2610;SDS011;5612;51.134;17.058;2023-12-29T11:04:42;2.50;;;2.30;;
2610;SDS011;5612;51.134;17.058;2023-12-29T11:07:11;3.40;;;3.10;;
2610;SDS011;5612;51.134;17.058;2023-12-29T11:09:40;3.57;;;2.63;;
2610;SDS011;5612;51.134;17.058;2023-12-29T11:12:10;5.63;;;3.10;;
2610;SDS011;5612;51.134;17.058;2023-12-29T11:14:42;3.33;;;2.90;;
2610;SDS011;5612;51.134;17.058;2023-12-29T11:17:14;3.70;;;2.80;;
2610;SDS011;5612;51.134;17.058;2023-12-29T11:19:45;3.13;;;2.90;;
2610;SDS011;5612;51.134;17.058;2023-12-29T11:22:15;3.80;;;3.30;;
2610;SDS011;5612;51.134;17.058;2023-12-29T11:24:46;3.93;;;3.10;;
2610;SDS011;5612;51.134;17.058;2023-12-29T11:27:16;6.93;;;3.40;;
2610;SDS011;5612;51.134;17.058;2023-12-29T11:29:47;3.10;;;2.80;;
2610;SDS011;5612;51.134;17.058;2023-12-29T11:32:16;2.67;;;2.47;;
2610;SDS011;5612;51.134;17.058;2023-12-29T11:34:51;3.70;;;3.40;;
2610;SDS011;5612;51.134;17.058;2023-12-29T11:37:27;2.93;;;2.70;;
2610;SDS011;5612;51.134;17.058;2023-12-29T11:40:06;3.07;;;2.73;;
2610;SDS011;5612;51.134;17.058;2023-12-29T11:42:45;2.73;;;2.53;;
2610;SDS011;5612;51.134;17.058;2023-12-29T11:45:28;2.57;;;2.37;;
2610;SDS011;5612;51.134;17.058;2023-12-29T11:47:58;5.23;;;2.70;;
2610;SDS011;5612;51.134;17.058;2023-12-29T11:50:30;3.47;;;3.00;;
2610;SDS011;5612;51.134;17.058;2023-12-29T11:52:59;5.37;;;3.27;;
2610;SDS011;5612;51.134;17.058;2023-12-29T11:55:29;4.10;;;3.70;;
2610;SDS011;5612;51.134;17.058;2023-12-29T11:57:59;3.30;;;3.00;;
2610;SDS011;5612;51.134;17.058;2023-12-29T12:00:44;3.50;;;2.90;;
2610;SDS011;5612;51.134;17.058;2023-12-29T12:03:18;3.50;;;3.20;;
2610;SDS011;5612;51.134;17.058;2023-12-29T12:05:52;4.33;;;3.47;;
2610;SDS011;5612;51.134;17.058;2023-12-29T12:08:28;2.90;;;2.70;;
2610;SDS011;5612;51.134;17.058;2023-12-29T12:10:57;3.97;;;3.57;;
2610;SDS011;5612;51.134;17.058;2023-12-29T12:14:04;3.70;;;3.50;;
2610;SDS011;5612;51.134;17.058;2023-12-29T12:16:50;3.67;;;3.33;;
2610;SDS011;5612;51.134;17.058;2023-12-29T12:19:20;3.83;;;3.53;;
2610;SDS011;5612;51.134;17.058;2023-12-29T12:21:51;4.17;;;3.27;;
2610;SDS011;5612;51.134;17.058;2023-12-29T12:24:22;3.60;;;3.30;;
2610;SDS011;5612;51.134;17.058;2023-12-29T12:26:52;5.13;;;3.13;;
2610;SDS011;5612;51.134;17.058;2023-12-29T12:29:22;4.17;;;3.87;;
2610;SDS011;5612;51.134;17.058;2023-12-29T12:31:54;4.20;;;3.90;;
2610;SDS011;5612;51.134;17.058;2023-12-29T12:34:22;4.30;;;4.00;;
2610;SDS011;5612;51.134;17.058;2023-12-29T12:36:52;3.80;;;3.50;;
2610;SDS011;5612;51.134;17.058;2023-12-29T12:39:23;4.10;;;3.70;;
2610;SDS011;5612;51.134;17.058;2023-12-29T12:41:52;4.43;;;4.03;;
2610;SDS011;5612;51.134;17.058;2023-12-29T12:44:20;4.27;;;3.97;;
2610;SDS011;5612;51.134;17.058;2023-12-29T12:46:57;4.30;;;4.00;;
2610;SDS011;5612;51.134;17.058;2023-12-29T12:49:28;3.93;;;3.60;;
2610;SDS011;5612;51.134;17.058;2023-12-29T12:51:57;3.60;;;3.40;;
2610;SDS011;5612;51.134;17.058;2023-12-29T12:54:26;3.30;;;3.10;;
2610;SDS011;5612;51.134;17.058;2023-12-29T12:56:55;4.90;;;4.40;;
2610;SDS011;5612;51.134;17.058;2023-12-29T12:59:24;5.00;;;4.50;;
2610;SDS011;5612;51.134;17.058;2023-12-29T13:01:55;4.27;;;3.97;;
2610;SDS011;5612;51.134;17.058;2023-12-29T13:04:25;4.50;;;4.13;;
2610;SDS011;5612;51.134;17.058;2023-12-29T13:06:54;7.10;;;4.07;;
2610;SDS011;5612;51.134;17.058;2023-12-29T13:09:23;3.80;;;3.50;;
2610;SDS011;5612;51.134;17.058;2023-12-29T13:11:58;6.50;;;4.37;;
2610;SDS011;5612;51.134;17.058;2023-12-29T13:14:35;4.40;;;4.00;;
2610;SDS011;5612;51.134;17.058;2023-12-29T13:17:09;3.83;;;3.50;;
2610;SDS011;5612;51.134;17.058;2023-12-29T13:19:38;3.47;;;3.27;;
2610;SDS011;5612;51.134;17.058;2023-12-29T13:22:08;5.13;;;3.67;;
2610;SDS011;5612;51.134;17.058;2023-12-29T13:24:42;4.73;;;4.10;;
2610;SDS011;5612;51.134;17.058;2023-12-29T13:27:11;4.30;;;3.90;;
2610;SDS011;5612;51.134;17.058;2023-12-29T13:29:41;5.30;;;4.23;;
2610;SDS011;5612;51.134;17.058;2023-12-29T13:32:14;3.90;;;3.60;;
2610;SDS011;5612;51.134;17.058;2023-12-29T13:34:48;5.60;;;3.80;;
2610;SDS011;5612;51.134;17.058;2023-12-29T13:37:23;4.80;;;4.00;;
2610;SDS011;5612;51.134;17.058;2023-12-29T13:39:58;4.37;;;3.97;;
2610;SDS011;5612;51.134;17.058;2023-12-29T13:42:35;6.97;;;3.97;;
2610;SDS011;5612;51.134;17.058;2023-12-29T13:45:09;4.53;;;3.63;;
2610;SDS011;5612;51.134;17.058;2023-12-29T13:47:40;4.33;;;3.00;;
2610;SDS011;5612;51.134;17.058;2023-12-29T13:50:09;4.30;;;3.90;;
2610;SDS011;5612;51.134;17.058;2023-12-29T13:52:38;4.20;;;3.80;;
2610;SDS011;5612;51.134;17.058;2023-12-29T13:55:07;4.40;;;4.00;;
2610;SDS011;5612;51.134;17.058;2023-12-29T13:57:36;6.03;;;3.80;;
2610;SDS011;5612;51.134;17.058;2023-12-29T14:00:14;4.20;;;3.70;;
2610;SDS011;5612;51.134;17.058;2023-12-29T14:02:45;4.63;;;4.17;;
2610;SDS011;5612;51.134;17.058;2023-12-29T14:05:18;4.13;;;3.73;;
2610;SDS011;5612;51.134;17.058;2023-12-29T14:07:52;3.90;;;3.60;;
2610;SDS011;5612;51.134;17.058;2023-12-29T14:10:28;5.17;;;4.70;;
2610;SDS011;5612;51.134;17.058;2023-12-29T14:13:05;4.87;;;3.97;;
2610;SDS011;5612;51.134;17.058;2023-12-29T14:15:35;9.77;;;4.70;;
2610;SDS011;5612;51.134;17.058;2023-12-29T14:18:07;4.80;;;4.30;;
2610;SDS011;5612;51.134;17.058;2023-12-29T14:20:49;6.17;;;4.50;;
2610;SDS011;5612;51.134;17.058;2023-12-29T14:23:18;6.43;;;4.73;;
2610;SDS011;5612;51.134;17.058;2023-12-29T14:25:47;6.90;;;4.60;;
2610;SDS011;5612;51.134;17.058;2023-12-29T14:28:17;6.07;;;4.97;;
2610;SDS011;5612;51.134;17.058;2023-12-29T14:30:47;6.33;;;5.20;;
2610;SDS011;5612;51.134;17.058;2023-12-29T14:33:19;7.37;;;5.20;;
2610;SDS011;5612;51.134;17.058;2023-12-29T14:35:47;5.03;;;4.57;;
2610;SDS011;5612;51.134;17.058;2023-12-29T14:38:16;5.47;;;4.97;;
2610;SDS011;5612;51.134;17.058;2023-12-29T14:40:46;6.97;;;5.10;;
2610;SDS011;5612;51.134;17.058;2023-12-29T14:43:15;6.63;;;5.20;;
2610;SDS011;5612;51.134;17.058;2023-12-29T14:45:44;6.10;;;3.87;;
2610;SDS011;5612;51.134;17.058;2023-12-29T14:48:13;4.30;;;3.90;;
2610;SDS011;5612;51.134;17.058;2023-12-29T14:50:43;4.60;;;3.67;;
2610;SDS011;5612;51.134;17.058;2023-12-29T14:53:13;5.27;;;4.77;;
2610;SDS011;5612;51.134;17.058;2023-12-29T14:55:41;6.00;;;4.37;;
2610;SDS011;5612;51.134;17.058;2023-12-29T14:58:12;3.70;;;3.30;;
2610;SDS011;5612;51.134;17.058;2023-12-29T15:00:43;4.87;;;4.43;;
2610;SDS011;5612;51.134;17.058;2023-12-29T15:03:14;4.50;;;4.10;;
2610;SDS011;5612;51.134;17.058;2023-12-29T15:05:45;7.00;;;4.77;;
2610;SDS011;5612;51.134;17.058;2023-12-29T15:08:14;4.53;;;4.13;;
2610;SDS011;5612;51.134;17.058;2023-12-29T15:10:44;4.67;;;4.27;;
2610;SDS011;5612;51.134;17.058;2023-12-29T15:13:13;5.80;;;4.80;;
2610;SDS011;5612;51.134;17.058;2023-12-29T15:15:43;6.73;;;4.80;;
2610;SDS011;5612;51.134;17.058;2023-12-29T15:18:12;5.10;;;4.70;;